sensor_id;sensor_type;location;lat;lon;timestamp;P1;durP1;ratioP1;P2;durP2;ratioP2
20824;SDS011;10573;50.936;6.978;2023-08-01T00:02:22;1.87;;;1.00;;
20824;SDS011;10573;50.936;6.978;2023-08-01T00:04:48;2.42;;;0.90;;
20824;SDS011;10573;50.936;6.978;2023-08-01T00:07:13;1.20;;;0.70;;
20824;SDS011;10573;50.936;6.978;2023-08-01T00:09:39;1.43;;;0.67;;
20824;SDS011;10573;50.936;6.978;2023-08-01T00:12:04;1.13;;;0.60;;
20824;SDS011;10573;50.936;6.978;2023-08-01T00:14:30;3.80;;;0.90;;
20824;SDS011;10573;50.936;6.978;2023-08-01T00:16:55;2.07;;;0.77;;
20824;SDS011;10573;50.936;6.978;2023-08-01T00:19:21;1.50;;;0.60;;
20824;SDS011;10573;50.936;6.978;2023-08-01T00:21:46;3.58;;;0.60;;
20824;SDS011;10573;50.936;6.978;2023-08-01T00:24:12;1.50;;;0.80;;
20824;SDS011;10573;50.936;6.978;2023-08-01T00:26:37;0.70;;;0.52;;
20824;SDS011;10573;50.936;6.978;2023-08-01T00:29:03;1.53;;;0.80;;
20824;SDS011;10573;50.936;6.978;2023-08-01T00:31:28;2.10;;;0.90;;
20824;SDS011;10573;50.936;6.978;2023-08-01T00:33:53;1.70;;;0.70;;
20824;SDS011;10573;50.936;6.978;2023-08-01T00:36:19;1.50;;;0.60;;
20824;SDS011;10573;50.936;6.978;2023-08-01T00:38:45;2.20;;;0.60;;
20824;SDS011;10573;50.936;6.978;2023-08-01T00:41:10;1.17;;;0.68;;
20824;SDS011;10573;50.936;6.978;2023-08-01T00:43:36;1.60;;;0.50;;
20824;SDS011;10573;50.936;6.978;2023-08-01T00:46:03;1.30;;;0.40;;
20824;SDS011;10573;50.936;6.978;2023-08-01T00:48:30;1.75;;;0.70;;
20824;SDS011;10573;50.936;6.978;2023-08-01T00:51:01;1.50;;;0.68;;
20824;SDS011;10573;50.936;6.978;2023-08-01T00:53:30;1.07;;;0.60;;
20824;SDS011;10573;50.936;6.978;2023-08-01T00:55:56;1.65;;;0.50;;
20824;SDS011;10573;50.936;6.978;2023-08-01T00:58:23;1.90;;;0.60;;
20824;SDS011;10573;50.936;6.978;2023-08-01T01:00:48;1.70;;;0.53;;
20824;SDS011;10573;50.936;6.978;2023-08-01T01:03:14;1.10;;;0.40;;
20824;SDS011;10573;50.936;6.978;2023-08-01T01:05:41;1.55;;;0.50;;
20824;SDS011;10573;50.936;6.978;2023-08-01T01:08:14;1.20;;;0.40;;
20824;SDS011;10573;50.936;6.978;2023-08-01T01:10:39;1.40;;;0.50;;
20824;SDS011;10573;50.936;6.978;2023-08-01T01:13:05;1.00;;;0.30;;
20824;SDS011;10573;50.936;6.978;2023-08-01T01:15:30;1.00;;;0.40;;
20824;SDS011;10573;50.936;6.978;2023-08-01T01:17:55;1.17;;;0.50;;
20824;SDS011;10573;50.936;6.978;2023-08-01T01:20:24;2.67;;;0.40;;
20824;SDS011;10573;50.936;6.978;2023-08-01T01:22:50;1.45;;;0.35;;
20824;SDS011;10573;50.936;6.978;2023-08-01T01:25:18;1.83;;;0.60;;
20824;SDS011;10573;50.936;6.978;2023-08-01T01:27:46;0.70;;;0.30;;
20824;SDS011;10573;50.936;6.978;2023-08-01T01:30:14;2.20;;;0.40;;
20824;SDS011;10573;50.936;6.978;2023-08-01T01:32:40;0.90;;;0.38;;
20824;SDS011;10573;50.936;6.978;2023-08-01T01:35:05;0.70;;;0.30;;
20824;SDS011;10573;50.936;6.978;2023-08-01T01:37:32;3.90;;;0.40;;
20824;SDS011;10573;50.936;6.978;2023-08-01T01:39:57;0.20;;;0.20;;
20824;SDS011;10573;50.936;6.978;2023-08-01T01:42:22;1.30;;;0.30;;
20824;SDS011;10573;50.936;6.978;2023-08-01T01:44:48;0.90;;;0.30;;
20824;SDS011;10573;50.936;6.978;2023-08-01T01:47:13;0.57;;;0.30;;
20824;SDS011;10573;50.936;6.978;2023-08-01T01:49:38;2.10;;;0.20;;
20824;SDS011;10573;50.936;6.978;2023-08-01T01:52:04;0.93;;;0.30;;
20824;SDS011;10573;50.936;6.978;2023-08-01T01:54:29;1.43;;;0.43;;
20824;SDS011;10573;50.936;6.978;2023-08-01T01:56:55;1.97;;;0.47;;
20824;SDS011;10573;50.936;6.978;2023-08-01T01:59:20;1.10;;;0.30;;
20824;SDS011;10573;50.936;6.978;2023-08-01T02:01:45;2.43;;;0.30;;
20824;SDS011;10573;50.936;6.978;2023-08-01T02:04:11;0.67;;;0.30;;
20824;SDS011;10573;50.936;6.978;2023-08-01T02:06:36;0.43;;;0.30;;
20824;SDS011;10573;50.936;6.978;2023-08-01T02:09:01;0.70;;;0.40;;
20824;SDS011;10573;50.936;6.978;2023-08-01T02:11:27;1.48;;;0.40;;
20824;SDS011;10573;50.936;6.978;2023-08-01T02:13:52;0.50;;;0.30;;
20824;SDS011;10573;50.936;6.978;2023-08-01T02:16:19;0.68;;;0.38;;
20824;SDS011;10573;50.936;6.978;2023-08-01T02:18:44;0.50;;;0.30;;
20824;SDS011;10573;50.936;6.978;2023-08-01T02:21:10;0.80;;;0.40;;
20824;SDS011;10573;50.936;6.978;2023-08-01T02:23:35;0.68;;;0.30;;
20824;SDS011;10573;50.936;6.978;2023-08-01T02:26:02;2.00;;;0.50;;
20824;SDS011;10573;50.936;6.978;2023-08-01T02:28:28;1.37;;;0.50;;
20824;SDS011;10573;50.936;6.978;2023-08-01T02:30:53;0.90;;;0.53;;
20824;SDS011;10573;50.936;6.978;2023-08-01T02:33:19;0.33;;;0.30;;
20824;SDS011;10573;50.936;6.978;2023-08-01T02:35:45;0.50;;;0.40;;
20824;SDS011;10573;50.936;6.978;2023-08-01T02:38:11;0.82;;;0.40;;
20824;SDS011;10573;50.936;6.978;2023-08-01T02:40:37;0.53;;;0.43;;
20824;SDS011;10573;50.936;6.978;2023-08-01T02:43:02;1.23;;;0.43;;
20824;SDS011;10573;50.936;6.978;2023-08-01T02:45:28;0.60;;;0.40;;
20824;SDS011;10573;50.936;6.978;2023-08-01T02:47:53;3.40;;;0.47;;
20824;SDS011;10573;50.936;6.978;2023-08-01T02:50:18;0.90;;;0.47;;
20824;SDS011;10573;50.936;6.978;2023-08-01T02:52:44;0.50;;;0.40;;
20824;SDS011;10573;50.936;6.978;2023-08-01T02:55:09;1.30;;;0.60;;
20824;SDS011;10573;50.936;6.978;2023-08-01T02:57:35;0.40;;;0.40;;
20824;SDS011;10573;50.936;6.978;2023-08-01T03:00:01;1.45;;;0.63;;
20824;SDS011;10573;50.936;6.978;2023-08-01T03:02:30;0.70;;;0.43;;
20824;SDS011;10573;50.936;6.978;2023-08-01T03:04:56;0.90;;;0.50;;
20824;SDS011;10573;50.936;6.978;2023-08-01T03:07:21;2.05;;;0.60;;
20824;SDS011;10573;50.936;6.978;2023-08-01T03:09:46;0.83;;;0.50;;
20824;SDS011;10573;50.936;6.978;2023-08-01T03:12:12;1.03;;;0.57;;
20824;SDS011;10573;50.936;6.978;2023-08-01T03:14:37;3.70;;;0.70;;
20824;SDS011;10573;50.936;6.978;2023-08-01T03:17:03;1.50;;;0.90;;
20824;SDS011;10573;50.936;6.978;2023-08-01T03:19:28;0.65;;;0.57;;
20824;SDS011;10573;50.936;6.978;2023-08-01T03:21:53;1.00;;;0.70;;
20824;SDS011;10573;50.936;6.978;2023-08-01T03:24:20;1.20;;;0.73;;
20824;SDS011;10573;50.936;6.978;2023-08-01T03:26:45;1.80;;;0.70;;
20824;SDS011;10573;50.936;6.978;2023-08-01T03:29:10;2.47;;;0.70;;
20824;SDS011;10573;50.936;6.978;2023-08-01T03:31:36;2.60;;;0.90;;
20824;SDS011;10573;50.936;6.978;2023-08-01T03:34:01;1.73;;;0.80;;
20824;SDS011;10573;50.936;6.978;2023-08-01T03:36:26;1.80;;;0.80;;
20824;SDS011;10573;50.936;6.978;2023-08-01T03:38:53;3.75;;;0.98;;
20824;SDS011;10573;50.936;6.978;2023-08-01T03:41:18;3.00;;;1.00;;
20824;SDS011;10573;50.936;6.978;2023-08-01T03:43:43;2.77;;;1.30;;
20824;SDS011;10573;50.936;6.978;2023-08-01T03:46:09;2.10;;;1.25;;
20824;SDS011;10573;50.936;6.978;2023-08-01T03:48:34;3.27;;;1.17;;
20824;SDS011;10573;50.936;6.978;2023-08-01T03:51:00;2.20;;;1.63;;
20824;SDS011;10573;50.936;6.978;2023-08-01T03:53:28;8.03;;;1.87;;
20824;SDS011;10573;50.936;6.978;2023-08-01T03:55:53;3.90;;;1.87;;
20824;SDS011;10573;50.936;6.978;2023-08-01T03:58:18;3.40;;;1.87;;
20824;SDS011;10573;50.936;6.978;2023-08-01T04:00:44;3.17;;;2.30;;
20824;SDS011;10573;50.936;6.978;2023-08-01T04:03:10;3.67;;;2.47;;
20824;SDS011;10573;50.936;6.978;2023-08-01T04:05:36;5.27;;;2.50;;
20824;SDS011;10573;50.936;6.978;2023-08-01T04:08:01;4.13;;;2.53;;
20824;SDS011;10573;50.936;6.978;2023-08-01T04:10:26;3.60;;;2.93;;
20824;SDS011;10573;50.936;6.978;2023-08-01T04:12:52;6.05;;;3.13;;
20824;SDS011;10573;50.936;6.978;2023-08-01T04:15:17;5.93;;;3.37;;
20824;SDS011;10573;50.936;6.978;2023-08-01T04:17:42;3.97;;;3.43;;
20824;SDS011;10573;50.936;6.978;2023-08-01T04:20:08;6.97;;;3.87;;
20824;SDS011;10573;50.936;6.978;2023-08-01T04:22:33;4.90;;;3.47;;
20824;SDS011;10573;50.936;6.978;2023-08-01T04:25:00;7.30;;;4.13;;
20824;SDS011;10573;50.936;6.978;2023-08-01T04:27:26;6.30;;;3.75;;
20824;SDS011;10573;50.936;6.978;2023-08-01T04:29:52;6.05;;;3.97;;
20824;SDS011;10573;50.936;6.978;2023-08-01T04:32:17;5.73;;;3.87;;
20824;SDS011;10573;50.936;6.978;2023-08-01T04:34:43;5.97;;;3.80;;
20824;SDS011;10573;50.936;6.978;2023-08-01T04:37:08;8.03;;;4.27;;
20824;SDS011;10573;50.936;6.978;2023-08-01T04:39:35;7.38;;;4.43;;
20824;SDS011;10573;50.936;6.978;2023-08-01T04:42:01;8.80;;;4.05;;
20824;SDS011;10573;50.936;6.978;2023-08-01T04:44:26;5.37;;;4.00;;
20824;SDS011;10573;50.936;6.978;2023-08-01T04:46:52;7.80;;;4.18;;
20824;SDS011;10573;50.936;6.978;2023-08-01T04:49:17;8.50;;;4.27;;
20824;SDS011;10573;50.936;6.978;2023-08-01T04:51:42;7.27;;;4.77;;
20824;SDS011;10573;50.936;6.978;2023-08-01T04:54:08;9.50;;;4.17;;
20824;SDS011;10573;50.936;6.978;2023-08-01T04:56:33;10.20;;;4.40;;
20824;SDS011;10573;50.936;6.978;2023-08-01T04:58:58;7.70;;;4.13;;
20824;SDS011;10573;50.936;6.978;2023-08-01T05:01:24;8.03;;;4.30;;
20824;SDS011;10573;50.936;6.978;2023-08-01T05:03:49;10.23;;;4.20;;
20824;SDS011;10573;50.936;6.978;2023-08-01T05:06:14;5.65;;;4.55;;
20824;SDS011;10573;50.936;6.978;2023-08-01T05:08:40;8.80;;;4.60;;
20824;SDS011;10573;50.936;6.978;2023-08-01T05:11:05;7.97;;;4.60;;
20824;SDS011;10573;50.936;6.978;2023-08-01T05:13:31;11.43;;;5.00;;
20824;SDS011;10573;50.936;6.978;2023-08-01T05:15:56;12.23;;;4.90;;
20824;SDS011;10573;50.936;6.978;2023-08-01T05:18:21;9.93;;;4.57;;
20824;SDS011;10573;50.936;6.978;2023-08-01T05:20:47;9.40;;;5.00;;
20824;SDS011;10573;50.936;6.978;2023-08-01T05:23:12;8.63;;;4.77;;
20824;SDS011;10573;50.936;6.978;2023-08-01T05:25:38;11.50;;;4.67;;
20824;SDS011;10573;50.936;6.978;2023-08-01T05:28:03;10.83;;;4.87;;
20824;SDS011;10573;50.936;6.978;2023-08-01T05:30:28;8.07;;;4.60;;
20824;SDS011;10573;50.936;6.978;2023-08-01T05:32:54;10.70;;;4.43;;
20824;SDS011;10573;50.936;6.978;2023-08-01T05:35:19;7.53;;;4.47;;
20824;SDS011;10573;50.936;6.978;2023-08-01T05:37:46;9.73;;;4.25;;
20824;SDS011;10573;50.936;6.978;2023-08-01T05:40:11;7.80;;;3.97;;
20824;SDS011;10573;50.936;6.978;2023-08-01T05:42:37;7.33;;;4.03;;
20824;SDS011;10573;50.936;6.978;2023-08-01T05:45:02;8.95;;;4.07;;
20824;SDS011;10573;50.936;6.978;2023-08-01T05:47:29;7.88;;;4.22;;
20824;SDS011;10573;50.936;6.978;2023-08-01T05:49:54;5.10;;;3.63;;
20824;SDS011;10573;50.936;6.978;2023-08-01T05:52:20;8.50;;;4.17;;
20824;SDS011;10573;50.936;6.978;2023-08-01T05:54:45;7.30;;;3.47;;
20824;SDS011;10573;50.936;6.978;2023-08-01T05:57:11;9.65;;;3.70;;
20824;SDS011;10573;50.936;6.978;2023-08-01T05:59:36;5.50;;;3.77;;
20824;SDS011;10573;50.936;6.978;2023-08-01T06:02:02;7.10;;;3.58;;
20824;SDS011;10573;50.936;6.978;2023-08-01T06:04:27;7.27;;;3.70;;
20824;SDS011;10573;50.936;6.978;2023-08-01T06:06:53;7.07;;;3.58;;
20824;SDS011;10573;50.936;6.978;2023-08-01T06:09:18;8.23;;;3.40;;
20824;SDS011;10573;50.936;6.978;2023-08-01T06:11:44;8.23;;;3.60;;
20824;SDS011;10573;50.936;6.978;2023-08-01T06:14:09;5.23;;;3.30;;
20824;SDS011;10573;50.936;6.978;2023-08-01T06:16:35;7.35;;;3.53;;
20824;SDS011;10573;50.936;6.978;2023-08-01T06:19:00;7.83;;;3.63;;
20824;SDS011;10573;50.936;6.978;2023-08-01T06:21:26;8.25;;;3.80;;
20824;SDS011;10573;50.936;6.978;2023-08-01T06:23:52;5.22;;;3.40;;
20824;SDS011;10573;50.936;6.978;2023-08-01T06:26:17;8.17;;;3.80;;
20824;SDS011;10573;50.936;6.978;2023-08-01T06:28:43;8.15;;;3.85;;
20824;SDS011;10573;50.936;6.978;2023-08-01T06:31:08;8.10;;;4.20;;
20824;SDS011;10573;50.936;6.978;2023-08-01T06:33:33;5.90;;;3.43;;
20824;SDS011;10573;50.936;6.978;2023-08-01T06:35:59;9.60;;;4.20;;
20824;SDS011;10573;50.936;6.978;2023-08-01T06:38:24;11.10;;;4.53;;
20824;SDS011;10573;50.936;6.978;2023-08-01T06:40:50;13.07;;;4.43;;
20824;SDS011;10573;50.936;6.978;2023-08-01T06:43:15;10.07;;;4.33;;
20824;SDS011;10573;50.936;6.978;2023-08-01T06:45:40;6.73;;;4.20;;
20824;SDS011;10573;50.936;6.978;2023-08-01T06:48:06;9.10;;;3.90;;
20824;SDS011;10573;50.936;6.978;2023-08-01T06:50:31;9.07;;;4.10;;
20824;SDS011;10573;50.936;6.978;2023-08-01T06:52:57;8.25;;;3.95;;
20824;SDS011;10573;50.936;6.978;2023-08-01T06:55:22;6.90;;;3.90;;
20824;SDS011;10573;50.936;6.978;2023-08-01T06:57:47;7.27;;;4.07;;
20824;SDS011;10573;50.936;6.978;2023-08-01T07:00:13;9.40;;;4.30;;
20824;SDS011;10573;50.936;6.978;2023-08-01T07:02:38;5.80;;;3.63;;
20824;SDS011;10573;50.936;6.978;2023-08-01T07:05:04;8.70;;;4.27;;
20824;SDS011;10573;50.936;6.978;2023-08-01T07:07:30;7.07;;;3.90;;
20824;SDS011;10573;50.936;6.978;2023-08-01T07:09:55;8.80;;;4.03;;
20824;SDS011;10573;50.936;6.978;2023-08-01T07:12:20;7.82;;;3.85;;
20824;SDS011;10573;50.936;6.978;2023-08-01T07:14:46;8.30;;;4.20;;
20824;SDS011;10573;50.936;6.978;2023-08-01T07:17:11;8.53;;;4.40;;
20824;SDS011;10573;50.936;6.978;2023-08-01T07:19:36;10.45;;;4.18;;
20824;SDS011;10573;50.936;6.978;2023-08-01T07:22:02;9.10;;;4.00;;
20824;SDS011;10573;50.936;6.978;2023-08-01T07:24:28;7.38;;;4.00;;
20824;SDS011;10573;50.936;6.978;2023-08-01T07:26:53;9.07;;;4.13;;
20824;SDS011;10573;50.936;6.978;2023-08-01T07:29:18;9.67;;;4.10;;
20824;SDS011;10573;50.936;6.978;2023-08-01T07:31:44;8.80;;;4.60;;
20824;SDS011;10573;50.936;6.978;2023-08-01T07:34:09;8.17;;;4.50;;
20824;SDS011;10573;50.936;6.978;2023-08-01T07:36:34;11.00;;;4.50;;
20824;SDS011;10573;50.936;6.978;2023-08-01T07:39:00;10.83;;;4.57;;
20824;SDS011;10573;50.936;6.978;2023-08-01T07:41:25;8.50;;;4.37;;
20824;SDS011;10573;50.936;6.978;2023-08-01T07:43:51;10.03;;;4.40;;
20824;SDS011;10573;50.936;6.978;2023-08-01T07:46:16;10.47;;;4.13;;
20824;SDS011;10573;50.936;6.978;2023-08-01T07:48:41;7.63;;;4.05;;
20824;SDS011;10573;50.936;6.978;2023-08-01T07:51:07;7.30;;;4.27;;
20824;SDS011;10573;50.936;6.978;2023-08-01T07:53:35;9.23;;;4.40;;
20824;SDS011;10573;50.936;6.978;2023-08-01T07:56:01;7.38;;;3.80;;
20824;SDS011;10573;50.936;6.978;2023-08-01T07:58:27;6.38;;;4.10;;
20824;SDS011;10573;50.936;6.978;2023-08-01T08:00:53;8.93;;;3.83;;
20824;SDS011;10573;50.936;6.978;2023-08-01T08:03:19;7.90;;;4.15;;
20824;SDS011;10573;50.936;6.978;2023-08-01T08:05:47;7.88;;;3.80;;
20824;SDS011;10573;50.936;6.978;2023-08-01T08:08:12;7.50;;;3.73;;
20824;SDS011;10573;50.936;6.978;2023-08-01T08:10:38;11.00;;;4.13;;
20824;SDS011;10573;50.936;6.978;2023-08-01T08:13:03;10.27;;;3.73;;
20824;SDS011;10573;50.936;6.978;2023-08-01T08:15:28;8.80;;;4.07;;
20824;SDS011;10573;50.936;6.978;2023-08-01T08:17:58;7.97;;;3.70;;
20824;SDS011;10573;50.936;6.978;2023-08-01T08:20:24;7.93;;;4.05;;
20824;SDS011;10573;50.936;6.978;2023-08-01T08:22:49;10.87;;;4.43;;
20824;SDS011;10573;50.936;6.978;2023-08-01T08:25:15;8.83;;;4.27;;
20824;SDS011;10573;50.936;6.978;2023-08-01T08:27:40;8.40;;;4.33;;
20824;SDS011;10573;50.936;6.978;2023-08-01T08:30:06;10.03;;;3.90;;
20824;SDS011;10573;50.936;6.978;2023-08-01T08:32:31;7.68;;;4.00;;
20824;SDS011;10573;50.936;6.978;2023-08-01T08:34:57;9.90;;;4.20;;
20824;SDS011;10573;50.936;6.978;2023-08-01T08:37:22;9.17;;;3.83;;
20824;SDS011;10573;50.936;6.978;2023-08-01T08:39:47;8.83;;;4.03;;
20824;SDS011;10573;50.936;6.978;2023-08-01T08:42:13;7.93;;;3.90;;
20824;SDS011;10573;50.936;6.978;2023-08-01T08:44:42;7.40;;;4.00;;
20824;SDS011;10573;50.936;6.978;2023-08-01T08:47:08;6.35;;;3.10;;
20824;SDS011;10573;50.936;6.978;2023-08-01T08:49:35;7.35;;;3.50;;
20824;SDS011;10573;50.936;6.978;2023-08-01T08:52:02;7.30;;;3.40;;
20824;SDS011;10573;50.936;6.978;2023-08-01T08:54:28;8.63;;;3.63;;
20824;SDS011;10573;50.936;6.978;2023-08-01T08:56:56;6.72;;;3.60;;
20824;SDS011;10573;50.936;6.978;2023-08-01T08:59:21;6.68;;;3.42;;
20824;SDS011;10573;50.936;6.978;2023-08-01T09:01:47;8.48;;;3.97;;
20824;SDS011;10573;50.936;6.978;2023-08-01T09:04:13;7.85;;;3.28;;
20824;SDS011;10573;50.936;6.978;2023-08-01T09:06:46;9.63;;;3.00;;
20824;SDS011;10573;50.936;6.978;2023-08-01T09:09:15;6.00;;;2.97;;
20824;SDS011;10573;50.936;6.978;2023-08-01T09:11:48;7.00;;;3.05;;
20824;SDS011;10573;50.936;6.978;2023-08-01T09:14:15;6.93;;;3.17;;
20824;SDS011;10573;50.936;6.978;2023-08-01T09:16:41;7.28;;;3.20;;
20824;SDS011;10573;50.936;6.978;2023-08-01T09:19:07;6.82;;;3.08;;
20824;SDS011;10573;50.936;6.978;2023-08-01T09:21:34;7.18;;;2.85;;
20824;SDS011;10573;50.936;6.978;2023-08-01T09:24:13;7.97;;;2.60;;
20824;SDS011;10573;50.936;6.978;2023-08-01T09:26:40;6.45;;;3.05;;
20824;SDS011;10573;50.936;6.978;2023-08-01T09:29:06;7.70;;;2.97;;
20824;SDS011;10573;50.936;6.978;2023-08-01T09:31:33;5.00;;;2.33;;
20824;SDS011;10573;50.936;6.978;2023-08-01T09:34:00;8.13;;;3.00;;
20824;SDS011;10573;50.936;6.978;2023-08-01T09:36:28;7.35;;;2.92;;
20824;SDS011;10573;50.936;6.978;2023-08-01T09:38:57;6.35;;;2.90;;
20824;SDS011;10573;50.936;6.978;2023-08-01T09:41:24;8.10;;;2.72;;
20824;SDS011;10573;50.936;6.978;2023-08-01T09:43:50;7.07;;;2.80;;
20824;SDS011;10573;50.936;6.978;2023-08-01T10:25:14;3.42;;;2.08;;
20824;SDS011;10573;50.936;6.978;2023-08-01T12:03:30;6.28;;;1.40;;
20824;SDS011;10573;50.936;6.978;2023-08-01T12:06:02;5.10;;;1.60;;
20824;SDS011;10573;50.936;6.978;2023-08-01T12:08:31;3.33;;;1.67;;
20824;SDS011;10573;50.936;6.978;2023-08-01T12:11:00;4.78;;;1.98;;
20824;SDS011;10573;50.936;6.978;2023-08-01T12:13:26;2.83;;;1.37;;
20824;SDS011;10573;50.936;6.978;2023-08-01T12:15:52;3.90;;;2.05;;
20824;SDS011;10573;50.936;6.978;2023-08-01T12:18:24;3.58;;;1.52;;
20824;SDS011;10573;50.936;6.978;2023-08-01T12:20:51;3.97;;;1.75;;
20824;SDS011;10573;50.936;6.978;2023-08-01T12:23:18;7.22;;;1.50;;
20824;SDS011;10573;50.936;6.978;2023-08-01T12:25:44;7.07;;;1.73;;
20824;SDS011;10573;50.936;6.978;2023-08-01T12:28:10;5.10;;;1.92;;
20824;SDS011;10573;50.936;6.978;2023-08-01T12:30:38;4.10;;;1.60;;
20824;SDS011;10573;50.936;6.978;2023-08-01T12:33:04;3.97;;;1.52;;
20824;SDS011;10573;50.936;6.978;2023-08-01T12:35:29;4.63;;;1.93;;
20824;SDS011;10573;50.936;6.978;2023-08-01T12:37:55;5.77;;;1.70;;
20824;SDS011;10573;50.936;6.978;2023-08-01T12:40:21;3.05;;;1.70;;
20824;SDS011;10573;50.936;6.978;2023-08-01T12:42:47;3.78;;;1.60;;
20824;SDS011;10573;50.936;6.978;2023-08-01T12:45:12;5.57;;;2.28;;
20824;SDS011;10573;50.936;6.978;2023-08-01T12:47:37;5.78;;;1.70;;
20824;SDS011;10573;50.936;6.978;2023-08-01T12:50:03;7.10;;;1.95;;
20824;SDS011;10573;50.936;6.978;2023-08-01T12:52:29;7.10;;;3.00;;
20824;SDS011;10573;50.936;6.978;2023-08-01T12:54:55;7.10;;;2.20;;
20824;SDS011;10573;50.936;6.978;2023-08-01T12:57:20;7.45;;;3.20;;
20824;SDS011;10573;50.936;6.978;2023-08-01T12:59:45;4.35;;;1.92;;
20824;SDS011;10573;50.936;6.978;2023-08-01T13:02:12;7.60;;;2.38;;
20824;SDS011;10573;50.936;6.978;2023-08-01T13:04:38;4.80;;;2.28;;
20824;SDS011;10573;50.936;6.978;2023-08-01T13:33:48;3.63;;;1.67;;
20824;SDS011;10573;50.936;6.978;2023-08-01T13:36:13;5.03;;;2.10;;
20824;SDS011;10573;50.936;6.978;2023-08-01T13:38:39;5.80;;;2.07;;
20824;SDS011;10573;50.936;6.978;2023-08-01T13:41:04;8.67;;;3.20;;
20824;SDS011;10573;50.936;6.978;2023-08-01T13:43:30;6.60;;;2.88;;
20824;SDS011;10573;50.936;6.978;2023-08-01T13:45:55;9.50;;;2.23;;
20824;SDS011;10573;50.936;6.978;2023-08-01T13:48:21;6.40;;;2.30;;
20824;SDS011;10573;50.936;6.978;2023-08-01T13:50:46;7.93;;;2.40;;
20824;SDS011;10573;50.936;6.978;2023-08-01T13:53:12;6.80;;;2.22;;
20824;SDS011;10573;50.936;6.978;2023-08-01T13:55:39;4.83;;;1.97;;
20824;SDS011;10573;50.936;6.978;2023-08-01T13:58:05;5.05;;;2.50;;
20824;SDS011;10573;50.936;6.978;2023-08-01T14:00:31;3.90;;;2.35;;
20824;SDS011;10573;50.936;6.978;2023-08-01T14:02:57;5.13;;;2.03;;
20824;SDS011;10573;50.936;6.978;2023-08-01T14:05:26;9.37;;;2.97;;
20824;SDS011;10573;50.936;6.978;2023-08-01T14:07:52;7.28;;;2.92;;
20824;SDS011;10573;50.936;6.978;2023-08-01T14:10:18;10.53;;;5.50;;
20824;SDS011;10573;50.936;6.978;2023-08-01T14:15:09;4.85;;;2.35;;
20824;SDS011;10573;50.936;6.978;2023-08-01T14:17:35;2.53;;;1.77;;
20824;SDS011;10573;50.936;6.978;2023-08-01T14:20:01;8.48;;;2.58;;
20824;SDS011;10573;50.936;6.978;2023-08-01T14:22:29;10.53;;;2.70;;
20824;SDS011;10573;50.936;6.978;2023-08-01T14:24:54;7.07;;;2.87;;
20824;SDS011;10573;50.936;6.978;2023-08-01T14:27:20;7.60;;;2.60;;
20824;SDS011;10573;50.936;6.978;2023-08-01T14:29:45;6.27;;;2.37;;
20824;SDS011;10573;50.936;6.978;2023-08-01T14:32:10;5.90;;;2.10;;
20824;SDS011;10573;50.936;6.978;2023-08-01T14:34:36;5.82;;;2.10;;
20824;SDS011;10573;50.936;6.978;2023-08-01T14:37:01;6.97;;;2.03;;
20824;SDS011;10573;50.936;6.978;2023-08-01T14:39:27;7.75;;;2.08;;
20824;SDS011;10573;50.936;6.978;2023-08-01T14:41:53;5.23;;;1.80;;
20824;SDS011;10573;50.936;6.978;2023-08-01T14:44:18;5.90;;;2.10;;
20824;SDS011;10573;50.936;6.978;2023-08-01T14:46:44;5.13;;;2.10;;
20824;SDS011;10573;50.936;6.978;2023-08-01T14:49:10;4.75;;;1.95;;
20824;SDS011;10573;50.936;6.978;2023-08-01T14:51:35;6.67;;;2.20;;
20824;SDS011;10573;50.936;6.978;2023-08-01T14:54:00;3.90;;;1.67;;
20824;SDS011;10573;50.936;6.978;2023-08-01T14:56:26;7.32;;;2.15;;
20824;SDS011;10573;50.936;6.978;2023-08-01T14:58:51;5.40;;;1.90;;
20824;SDS011;10573;50.936;6.978;2023-08-01T15:01:17;3.27;;;1.80;;
20824;SDS011;10573;50.936;6.978;2023-08-01T15:03:45;6.47;;;2.28;;
20824;SDS011;10573;50.936;6.978;2023-08-01T15:06:11;5.47;;;1.80;;
20824;SDS011;10573;50.936;6.978;2023-08-01T15:08:37;4.57;;;2.00;;
20824;SDS011;10573;50.936;6.978;2023-08-01T15:11:05;4.95;;;1.83;;
20824;SDS011;10573;50.936;6.978;2023-08-01T15:13:31;5.45;;;1.85;;
20824;SDS011;10573;50.936;6.978;2023-08-01T15:15:57;3.33;;;1.50;;
20824;SDS011;10573;50.936;6.978;2023-08-01T15:18:22;3.85;;;1.75;;
20824;SDS011;10573;50.936;6.978;2023-08-01T15:20:47;3.57;;;1.80;;
20824;SDS011;10573;50.936;6.978;2023-08-01T15:23:13;4.57;;;1.80;;
20824;SDS011;10573;50.936;6.978;2023-08-01T15:25:38;4.32;;;1.80;;
20824;SDS011;10573;50.936;6.978;2023-08-01T15:28:03;4.17;;;1.80;;
20824;SDS011;10573;50.936;6.978;2023-08-01T15:30:29;7.60;;;1.80;;
20824;SDS011;10573;50.936;6.978;2023-08-01T15:32:54;4.60;;;1.40;;
20824;SDS011;10573;50.936;6.978;2023-08-01T15:35:20;5.00;;;2.10;;
20824;SDS011;10573;50.936;6.978;2023-08-01T15:37:53;4.38;;;1.73;;
20824;SDS011;10573;50.936;6.978;2023-08-01T15:40:18;4.93;;;1.30;;
20824;SDS011;10573;50.936;6.978;2023-08-01T15:42:44;6.13;;;2.03;;
20824;SDS011;10573;50.936;6.978;2023-08-01T15:45:10;5.85;;;1.50;;
20824;SDS011;10573;50.936;6.978;2023-08-01T15:47:35;5.97;;;1.70;;
20824;SDS011;10573;50.936;6.978;2023-08-01T15:50:00;9.70;;;1.80;;
20824;SDS011;10573;50.936;6.978;2023-08-01T15:52:26;4.80;;;1.80;;
20824;SDS011;10573;50.936;6.978;2023-08-01T15:54:51;3.47;;;1.53;;
20824;SDS011;10573;50.936;6.978;2023-08-01T15:57:17;4.97;;;1.98;;
20824;SDS011;10573;50.936;6.978;2023-08-01T15:59:44;5.80;;;1.90;;
20824;SDS011;10573;50.936;6.978;2023-08-01T16:02:10;4.75;;;1.85;;
20824;SDS011;10573;50.936;6.978;2023-08-01T16:04:36;3.72;;;1.58;;
20824;SDS011;10573;50.936;6.978;2023-08-01T16:07:01;3.90;;;1.77;;
20824;SDS011;10573;50.936;6.978;2023-08-01T16:09:26;7.63;;;1.77;;
20824;SDS011;10573;50.936;6.978;2023-08-01T16:11:52;4.87;;;1.80;;
20824;SDS011;10573;50.936;6.978;2023-08-01T16:14:17;3.38;;;1.42;;
20824;SDS011;10573;50.936;6.978;2023-08-01T16:16:42;5.50;;;1.70;;
20824;SDS011;10573;50.936;6.978;2023-08-01T16:19:08;2.53;;;1.27;;
20824;SDS011;10573;50.936;6.978;2023-08-01T16:21:33;4.53;;;1.70;;
20824;SDS011;10573;50.936;6.978;2023-08-01T16:23:59;3.63;;;1.40;;
20824;SDS011;10573;50.936;6.978;2023-08-01T16:26:26;6.35;;;1.40;;
20824;SDS011;10573;50.936;6.978;2023-08-01T16:28:52;6.43;;;1.50;;
20824;SDS011;10573;50.936;6.978;2023-08-01T16:31:17;4.63;;;1.53;;
20824;SDS011;10573;50.936;6.978;2023-08-01T16:33:42;3.93;;;1.30;;
20824;SDS011;10573;50.936;6.978;2023-08-01T16:36:08;4.35;;;1.38;;
20824;SDS011;10573;50.936;6.978;2023-08-01T16:38:34;4.20;;;1.50;;
20824;SDS011;10573;50.936;6.978;2023-08-01T16:40:59;5.82;;;1.50;;
20824;SDS011;10573;50.936;6.978;2023-08-01T16:43:24;5.97;;;1.90;;
20824;SDS011;10573;50.936;6.978;2023-08-01T16:45:50;5.53;;;1.40;;
20824;SDS011;10573;50.936;6.978;2023-08-01T16:48:15;5.00;;;1.50;;
20824;SDS011;10573;50.936;6.978;2023-08-01T16:50:41;3.20;;;1.23;;
20824;SDS011;10573;50.936;6.978;2023-08-01T16:53:06;5.83;;;1.40;;
20824;SDS011;10573;50.936;6.978;2023-08-01T16:55:33;5.00;;;1.50;;
20824;SDS011;10573;50.936;6.978;2023-08-01T16:57:58;6.50;;;1.40;;
20824;SDS011;10573;50.936;6.978;2023-08-01T17:00:24;5.60;;;1.70;;
20824;SDS011;10573;50.936;6.978;2023-08-01T17:02:49;4.80;;;1.73;;
20824;SDS011;10573;50.936;6.978;2023-08-01T17:05:14;6.17;;;1.40;;
20824;SDS011;10573;50.936;6.978;2023-08-01T17:07:40;5.47;;;1.47;;
20824;SDS011;10573;50.936;6.978;2023-08-01T17:10:05;4.60;;;1.60;;
20824;SDS011;10573;50.936;6.978;2023-08-01T17:12:32;5.93;;;1.98;;
20824;SDS011;10573;50.936;6.978;2023-08-01T17:14:58;4.50;;;1.63;;
20824;SDS011;10573;50.936;6.978;2023-08-01T17:17:24;4.63;;;1.80;;
20824;SDS011;10573;50.936;6.978;2023-08-01T17:19:50;5.60;;;1.65;;
20824;SDS011;10573;50.936;6.978;2023-08-01T17:22:15;3.50;;;1.50;;
20824;SDS011;10573;50.936;6.978;2023-08-01T17:24:41;5.93;;;1.70;;